createdAt,value
2019-05-02T00:01:21.372Z,48.63
2019-05-02T00:03:51.654Z,57.40
2019-05-02T00:06:21.842Z,55.33
2019-05-02T00:08:51.964Z,46.87
2019-05-02T00:11:23.072Z,52.10
2019-05-02T00:13:53.513Z,53.80
2019-05-02T00:16:23.677Z,51.43
2019-05-02T00:18:54.057Z,57.07
2019-05-02T00:21:24.292Z,53.00
2019-05-02T00:23:54.279Z,55.70
2019-05-02T00:43:51.225Z,46.50
2019-05-02T00:46:21.398Z,46.87
2019-05-02T00:49:01.868Z,42.97
2019-05-02T00:51:32.152Z,49.13
2019-05-02T00:54:02.565Z,39.93
2019-05-02T00:56:32.603Z,38.30
2019-05-02T00:59:07.354Z,40.47
2019-05-02T01:01:45.875Z,44.73
2019-05-02T01:04:27.519Z,37.50
2019-05-02T01:06:56.574Z,40.80
2019-05-02T01:09:26.857Z,39.77
2019-05-02T01:11:57.020Z,44.23
2019-05-02T01:14:31.522Z,42.53
2019-05-02T01:16:58.722Z,40.07
2019-05-02T01:19:28.553Z,38.10
2019-05-02T01:21:58.559Z,42.23
2019-05-02T01:24:28.499Z,39.40
2019-05-02T01:27:06.465Z,35.43
2019-05-02T01:29:44.454Z,40.70
2019-05-02T01:32:42.719Z,41.80
2019-05-02T01:35:21.387Z,37.10
2019-05-02T01:38:16.199Z,40.20
2019-05-02T01:40:53.246Z,35.73
2019-05-02T01:43:28.604Z,32.20
2019-05-02T01:45:58.641Z,38.83
2019-05-02T01:48:28.707Z,37.53
2019-05-02T01:50:58.998Z,33.40
2019-05-02T01:53:34.211Z,35.53
2019-05-02T01:56:01.839Z,36.33
2019-05-02T01:58:31.724Z,32.50
2019-05-02T02:01:01.708Z,34.33
2019-05-02T02:03:31.996Z,35.37
2019-05-02T02:06:02.769Z,35.10
2019-05-02T02:08:33.982Z,33.60
2019-05-02T02:11:04.220Z,36.50
2019-05-02T02:13:36.390Z,34.03
2019-05-02T02:16:06.196Z,38.17
2019-05-02T02:18:44.869Z,36.20
2019-05-02T02:21:34.511Z,34.80
2019-05-02T02:24:12.267Z,31.70
2019-05-02T02:26:43.568Z,31.27
2019-05-02T02:29:14.419Z,30.03
2019-05-02T02:31:46.381Z,31.03
2019-05-02T02:34:21.483Z,27.37
2019-05-02T02:36:48.514Z,27.60
2019-05-02T02:39:18.915Z,28.97
2019-05-02T02:41:51.966Z,29.30
2019-05-02T02:44:41.843Z,27.07
2019-05-02T02:47:18.731Z,31.90
2019-05-02T02:49:47.123Z,33.70
2019-05-02T02:52:17.411Z,29.37
2019-05-02T02:54:50.813Z,25.47
2019-05-02T02:57:26.672Z,27.50
2019-05-02T03:00:06.087Z,28.67
2019-05-02T03:02:27.084Z,26.20
2019-05-02T03:05:02.553Z,26.00
2019-05-02T03:07:32.966Z,30.30
2019-05-02T03:10:06.296Z,34.47
2019-05-02T03:12:49.681Z,26.00
2019-05-02T03:15:28.117Z,28.23
2019-05-02T03:17:53.494Z,32.40
2019-05-02T03:20:23.945Z,29.90
2019-05-02T03:22:54.268Z,29.97
2019-05-02T03:25:25.125Z,31.20
2019-05-02T03:27:56.421Z,28.40
2019-05-02T03:30:35.371Z,28.63
2019-05-02T03:33:06.294Z,32.43
2019-05-02T03:35:41.856Z,32.60
2019-05-02T03:38:02.417Z,32.07
2019-05-02T03:40:39.262Z,35.43
2019-05-02T03:43:04.261Z,36.40
2019-05-02T03:45:39.759Z,36.30
2019-05-02T03:48:06.354Z,37.40
2019-05-02T03:50:38.338Z,35.20
2019-05-02T03:53:08.605Z,35.23
2019-05-02T03:55:38.880Z,37.70
2019-05-02T03:58:14.679Z,30.83
2019-05-02T04:00:40.368Z,37.17
2019-05-02T04:03:10.417Z,38.73
2019-05-02T04:05:42.232Z,35.40
2019-05-02T04:08:19.738Z,39.17
2019-05-02T04:11:21.389Z,38.57
2019-05-02T04:13:56.027Z,38.23
2019-05-02T04:16:31.509Z,36.07
2019-05-02T04:19:05.984Z,37.23
2019-05-02T04:21:36.453Z,37.23
2019-05-02T04:24:15.008Z,33.20
2019-05-02T04:26:39.456Z,39.20
2019-05-02T04:29:09.696Z,33.70
2019-05-02T04:31:39.592Z,38.07
2019-05-02T04:34:15.117Z,37.07
2019-05-02T04:36:45.773Z,37.43
2019-05-02T04:39:20.513Z,36.53
2019-05-02T04:41:44.808Z,42.20
2019-05-02T04:44:14.721Z,37.77
2019-05-02T04:46:44.664Z,36.03
2019-05-02T04:49:20.033Z,42.77
2019-05-02T04:51:50.710Z,36.47
2019-05-02T04:54:25.752Z,38.90
2019-05-02T04:56:55.217Z,40.30
2019-05-02T04:59:22.912Z,44.63
2019-05-02T05:01:57.324Z,38.03
2019-05-02T05:04:24.476Z,40.03
2019-05-02T05:06:58.164Z,39.93
2019-05-02T05:09:27.888Z,42.50
2019-05-02T05:12:01.323Z,38.63
2019-05-02T05:14:32.849Z,44.23
2019-05-02T05:17:01.216Z,39.20
2019-05-02T05:19:32.732Z,38.43
2019-05-02T05:22:04.733Z,46.27
2019-05-02T05:24:42.789Z,42.13
2019-05-02T05:27:13.368Z,44.47
2019-05-02T05:29:48.021Z,34.57
2019-05-02T05:32:17.911Z,40.23
2019-05-02T05:34:48.042Z,38.37
2019-05-02T05:37:17.920Z,35.00
2019-05-02T05:39:52.308Z,38.67
2019-05-02T05:42:23.293Z,35.23
2019-05-02T05:44:51.029Z,38.67
2019-05-02T05:47:21.417Z,39.53
2019-05-02T05:49:52.303Z,38.50
2019-05-02T05:52:23.024Z,39.63
2019-05-02T05:54:53.023Z,38.20
2019-05-02T05:57:22.898Z,37.53
2019-05-02T05:59:52.767Z,36.47
2019-05-02T06:02:22.689Z,36.80
2019-05-02T06:04:55.373Z,43.03
2019-05-02T06:07:24.086Z,37.37
2019-05-02T06:09:54.045Z,33.43
2019-05-02T06:12:26.103Z,44.20
2019-05-02T06:14:56.234Z,36.83
2019-05-02T06:17:28.474Z,37.50
2019-05-02T06:19:59.474Z,38.10
2019-05-02T06:22:29.313Z,39.67
2019-05-02T06:24:59.201Z,41.93
2019-05-02T06:27:30.489Z,46.03
2019-05-02T06:30:00.633Z,38.87
2019-05-02T06:32:30.469Z,37.87
2019-05-02T06:35:00.471Z,40.27
2019-05-02T06:37:31.595Z,43.67
2019-05-02T06:40:03.168Z,39.43
2019-05-02T06:42:34.892Z,39.10
2019-05-02T06:45:05.619Z,39.03
2019-05-02T06:47:41.680Z,41.63
2019-05-02T06:50:08.363Z,49.33
2019-05-02T06:52:40.078Z,42.37
2019-05-02T06:55:10.023Z,45.07
2019-05-02T06:57:40.277Z,44.67
2019-05-02T07:00:12.240Z,45.87
2019-05-02T07:02:42.071Z,38.33
2019-05-02T07:05:12.194Z,37.30
2019-05-02T07:07:42.157Z,44.50
2019-05-02T07:10:12.488Z,43.93
2019-05-02T07:12:46.113Z,42.37
2019-05-02T07:15:43.129Z,45.40
2019-05-02T07:18:14.761Z,44.43
2019-05-02T07:20:45.062Z,43.60
2019-05-02T07:23:16.299Z,50.57
2019-05-02T07:25:47.000Z,44.60
2019-05-02T07:28:16.810Z,47.63
2019-05-02T07:30:46.698Z,48.50
2019-05-02T07:33:16.538Z,49.17
2019-05-02T07:35:46.496Z,47.13
2019-05-02T07:38:20.120Z,50.30
2019-05-02T07:40:52.977Z,51.87
2019-05-02T07:43:22.444Z,44.80
2019-05-02T07:45:52.850Z,49.50
2019-05-02T07:48:22.695Z,46.23
2019-05-02T07:50:53.144Z,45.77
2019-05-02T07:53:23.447Z,47.80
2019-05-02T07:55:53.309Z,44.53
2019-05-02T08:00:52.029Z,44.83
2019-05-02T08:03:21.920Z,46.70
2019-05-02T08:05:54.553Z,46.00
2019-05-02T08:08:25.105Z,55.30
2019-05-02T08:11:01.930Z,51.00
2019-05-02T08:13:31.390Z,51.30
2019-05-02T08:16:02.497Z,53.60
2019-05-02T08:18:37.684Z,41.93
2019-05-02T08:21:04.401Z,43.93
2019-05-02T08:23:36.149Z,47.07
2019-05-02T08:26:06.216Z,44.17
2019-05-02T08:28:51.978Z,47.70
2019-05-02T08:31:21.002Z,46.57
2019-05-02T08:34:00.048Z,49.93
2019-05-02T08:36:35.980Z,42.73
2019-05-02T08:39:09.205Z,44.10
2019-05-02T08:41:43.000Z,52.47
2019-05-02T08:44:17.000Z,49.20
2019-05-02T08:46:53.116Z,51.13
2019-05-02T08:49:25.179Z,49.10
2019-05-02T08:51:59.114Z,48.10
2019-05-02T08:54:37.758Z,47.55
2019-05-02T08:57:07.764Z,46.20
2019-05-02T08:59:37.748Z,44.30
2019-05-02T09:02:07.797Z,44.38
2019-05-02T09:04:44.438Z,47.38
2019-05-02T09:07:17.582Z,47.10
2019-05-02T09:09:49.322Z,45.73
2019-05-02T09:12:20.412Z,48.70
2019-05-02T09:14:53.041Z,44.75
2019-05-02T09:17:35.410Z,47.67
2019-05-02T09:20:02.306Z,45.95
2019-05-02T09:22:29.022Z,44.80
2019-05-02T09:25:02.310Z,43.17
2019-05-02T09:27:32.433Z,44.30
2019-05-02T09:30:03.051Z,43.30
2019-05-02T09:32:32.921Z,41.63
2019-05-02T09:35:06.182Z,41.03
2019-05-02T09:37:35.709Z,46.07
2019-05-02T09:40:06.876Z,48.67
2019-05-02T09:42:37.628Z,45.45
2019-05-02T09:45:09.957Z,43.25
2019-05-02T09:47:55.444Z,41.95
2019-05-02T09:52:44.685Z,40.50
2019-05-02T09:55:16.314Z,42.03
2019-05-02T09:57:46.661Z,45.03
2019-05-02T10:00:32.312Z,40.73
2019-05-02T10:03:03.780Z,42.47
2019-05-02T10:05:38.556Z,46.60
2019-05-02T10:08:13.716Z,41.70
2019-05-02T10:10:47.050Z,41.27
2019-05-02T10:13:16.400Z,44.83
2019-05-02T10:15:52.728Z,42.57
2019-05-02T10:18:30.016Z,44.27
2019-05-02T10:20:56.485Z,42.40
2019-05-02T10:23:29.093Z,35.13
2019-05-02T10:25:59.136Z,40.27
2019-05-02T10:28:29.310Z,42.90
2019-05-02T10:31:03.630Z,41.60
2019-05-02T10:33:37.818Z,39.93
2019-05-02T10:36:19.684Z,35.83
2019-05-02T10:38:54.919Z,43.00
2019-05-02T10:41:23.548Z,38.43
2019-05-02T10:43:59.190Z,39.80
2019-05-02T10:46:37.758Z,40.93
2019-05-02T10:49:22.674Z,42.83
2019-05-02T10:51:53.768Z,40.23
2019-05-02T10:54:28.010Z,42.90
2019-05-02T10:56:57.030Z,51.27
2019-05-02T10:59:29.512Z,49.60
2019-05-02T11:02:10.473Z,37.77
2019-05-02T11:04:45.275Z,40.17
2019-05-02T11:07:17.215Z,38.07
2019-05-02T11:09:47.286Z,36.00
2019-05-02T11:12:25.645Z,40.80
2019-05-02T11:15:02.717Z,41.40
2019-05-02T11:17:36.659Z,43.03
2019-05-02T11:20:09.313Z,38.03
2019-05-02T11:22:39.638Z,44.20
2019-05-02T11:25:11.985Z,37.70
2019-05-02T11:27:41.868Z,41.13
2019-05-02T11:30:16.749Z,38.20
2019-05-02T11:32:44.696Z,41.37
2019-05-02T11:35:14.629Z,45.10
2019-05-02T11:37:44.553Z,38.70
2019-05-02T11:40:16.276Z,41.83
2019-05-02T11:42:47.870Z,43.07
2019-05-02T11:45:17.764Z,42.43
2019-05-02T11:47:47.647Z,38.90
2019-05-02T11:50:17.680Z,42.10
2019-05-02T11:55:19.019Z,40.90
2019-05-02T11:57:52.335Z,40.00
2019-05-02T12:53:12.762Z,38.90
2019-05-02T12:55:43.064Z,36.60
2019-05-02T12:58:13.212Z,39.00
2019-05-02T13:00:43.486Z,43.23
2019-05-02T13:03:36.830Z,39.40
2019-05-02T13:06:07.116Z,40.90
2019-05-02T13:08:48.563Z,36.80
2019-05-02T13:11:36.790Z,38.23
2019-05-02T13:14:05.344Z,40.73
2019-05-02T13:16:35.381Z,39.50
2019-05-02T13:19:06.423Z,40.37
2019-05-02T13:21:50.156Z,44.53
2019-05-02T13:24:42.209Z,39.13
2019-05-02T13:27:16.345Z,44.77
2019-05-02T13:29:46.956Z,38.60
2019-05-02T13:32:38.239Z,44.40
2019-05-02T13:35:42.121Z,43.60
2019-05-02T13:38:13.223Z,45.00
2019-05-02T13:40:44.918Z,41.83
2019-05-02T13:43:14.854Z,39.20
2019-05-02T13:46:02.259Z,43.10
2019-05-02T13:48:34.080Z,44.10
2019-05-02T13:51:04.237Z,41.00
2019-05-02T13:53:37.311Z,45.87
2019-05-02T13:56:25.148Z,46.87
2019-05-02T13:58:55.112Z,46.80
2019-05-02T14:01:25.333Z,44.23
2019-05-02T14:03:55.878Z,43.07
2019-05-02T14:06:37.984Z,42.37
2019-05-02T14:09:23.358Z,43.10
2019-05-02T14:12:02.048Z,53.90
2019-05-02T14:14:32.776Z,51.00
2019-05-02T14:17:03.114Z,55.77
2019-05-02T14:19:33.393Z,55.90
2019-05-02T14:22:03.425Z,53.43
2019-05-02T14:24:33.259Z,54.87
2019-05-02T14:27:07.212Z,56.33
2019-05-02T14:29:35.239Z,61.63
2019-05-02T14:32:19.682Z,55.83
2019-05-02T14:34:48.159Z,61.00
2019-05-02T14:37:18.320Z,59.47
2019-05-02T14:39:52.328Z,59.00
2019-05-02T14:42:26.009Z,64.27
2019-05-02T14:45:08.985Z,61.30
2019-05-02T14:47:28.599Z,63.63
2019-05-02T14:50:02.072Z,61.07
2019-05-02T14:52:32.571Z,63.20
2019-05-02T14:55:02.928Z,61.27
2019-05-02T14:57:33.261Z,67.17
2019-05-02T15:00:03.464Z,69.40
2019-05-02T15:02:47.549Z,61.83
2019-05-02T15:05:19.399Z,69.03
2019-05-02T15:07:46.564Z,63.60
2019-05-02T15:10:16.869Z,58.83
2019-05-02T15:12:53.433Z,62.17
2019-05-02T15:15:19.719Z,60.43
2019-05-02T15:17:49.583Z,59.17
2019-05-02T15:20:19.577Z,59.67
2019-05-02T15:22:49.535Z,59.30
2019-05-02T15:25:19.568Z,62.83
2019-05-02T15:27:50.047Z,51.20
2019-05-02T15:30:21.306Z,59.40
2019-05-02T15:32:56.932Z,56.70
2019-05-02T15:35:35.911Z,56.70
2019-05-02T15:38:06.910Z,53.87
2019-05-02T15:40:46.934Z,54.23
2019-05-02T15:43:09.720Z,53.53
2019-05-02T15:45:42.009Z,47.37
2019-05-02T15:48:14.585Z,53.37
2019-05-02T15:50:50.077Z,47.20
2019-05-02T15:53:33.391Z,56.63
2019-05-02T15:56:03.314Z,54.93
2019-05-02T15:58:33.361Z,62.20
2019-05-02T16:01:41.616Z,51.83
2019-05-02T16:04:12.736Z,58.43
2019-05-02T16:06:42.721Z,66.30
2019-05-02T16:09:12.839Z,60.07
2019-05-02T16:11:43.488Z,56.30
2019-05-02T16:14:14.114Z,54.53
2019-05-02T16:16:45.315Z,60.40
2019-05-02T16:19:27.124Z,64.10
2019-05-02T16:21:54.933Z,58.27
2019-05-02T16:24:25.725Z,64.67
2019-05-02T16:26:57.298Z,58.23
2019-05-02T16:29:28.827Z,57.30
2019-05-02T16:32:13.181Z,61.70
2019-05-02T16:34:54.652Z,61.27
2019-05-02T16:37:24.546Z,56.73
2019-05-02T16:39:54.950Z,62.10
2019-05-02T16:42:25.021Z,52.50
2019-05-02T16:44:55.070Z,61.27
2019-05-02T16:47:24.936Z,53.00
2019-05-02T16:49:56.591Z,54.37
2019-05-02T16:52:26.744Z,49.03
2019-05-02T16:54:56.703Z,51.73
2019-05-02T16:57:26.725Z,55.63
2019-05-02T17:00:01.431Z,52.87
2019-05-02T17:02:28.340Z,55.70
2019-05-02T17:05:00.286Z,50.30
2019-05-02T17:07:47.923Z,52.80
2019-05-02T17:10:26.106Z,54.80
2019-05-02T17:12:58.618Z,51.27
2019-05-02T17:15:35.365Z,47.80
2019-05-02T17:18:12.608Z,49.70
2019-05-02T17:20:37.992Z,50.53
2019-05-02T17:23:07.985Z,52.47
2019-05-02T17:25:38.147Z,56.20
2019-05-02T17:28:10.483Z,50.53
2019-05-02T17:30:42.532Z,51.73
2019-05-02T17:33:16.319Z,59.63
2019-05-02T17:35:50.007Z,50.53
2019-05-02T17:38:19.135Z,51.60
2019-05-02T17:40:51.744Z,53.70
2019-05-02T17:43:22.685Z,52.17
2019-05-02T17:45:52.766Z,47.10
2019-05-02T17:48:22.944Z,50.03
2019-05-02T17:51:17.919Z,58.33
2019-05-02T17:53:49.814Z,57.70
2019-05-02T17:56:22.358Z,60.73
2019-05-02T17:58:56.580Z,57.50
2019-05-02T18:01:36.250Z,60.23
2019-05-02T18:04:12.655Z,57.77
2019-05-02T18:06:41.589Z,59.27
2019-05-02T18:09:12.218Z,58.10
2019-05-02T18:11:42.841Z,60.23
2019-05-02T18:14:19.721Z,59.50
2019-05-02T18:16:47.189Z,55.40
2019-05-02T18:19:23.523Z,56.17
2019-05-02T18:21:52.618Z,56.40
2019-05-02T18:24:22.614Z,58.57
2019-05-02T18:26:52.467Z,50.73
2019-05-02T18:29:22.663Z,66.00
2019-05-02T18:31:52.628Z,55.03
2019-05-02T18:34:25.885Z,61.47
2019-05-02T18:36:57.398Z,57.00
2019-05-02T18:39:27.600Z,61.50
2019-05-02T18:41:57.756Z,60.07
2019-05-02T18:44:27.748Z,57.30
2019-05-02T18:46:57.821Z,53.23
2019-05-02T18:49:28.156Z,45.70
2019-05-02T18:51:58.197Z,42.93
2019-05-02T18:54:28.593Z,20.50
2019-05-02T18:56:58.533Z,20.53
2019-05-02T18:59:29.788Z,14.20
2019-05-02T19:02:02.041Z,15.90
2019-05-02T19:04:38.199Z,12.90
2019-05-02T19:07:07.581Z,12.17
2019-05-02T19:09:50.864Z,14.17
2019-05-02T19:12:19.480Z,14.83
2019-05-02T19:14:46.249Z,15.03
2019-05-02T19:17:16.285Z,13.90
2019-05-02T19:19:50.386Z,14.30
2019-05-02T19:22:22.424Z,15.33
2019-05-02T19:24:52.827Z,15.27
2019-05-02T19:27:43.889Z,15.80
2019-05-02T19:30:23.597Z,17.80
2019-05-02T19:32:57.722Z,14.00
2019-05-02T19:35:25.305Z,17.37
2019-05-02T19:37:55.645Z,18.73
2019-05-02T19:40:28.201Z,20.60
2019-05-02T19:43:03.376Z,18.30
2019-05-02T19:45:29.924Z,19.13
2019-05-02T19:48:00.121Z,19.00
2019-05-02T19:50:43.354Z,16.20
2019-05-02T19:53:17.888Z,20.20
2019-05-02T19:55:42.919Z,17.57
2019-05-02T19:58:13.773Z,22.13
2019-05-02T20:00:46.200Z,16.40
2019-05-02T20:03:25.921Z,19.43
2019-05-02T20:05:51.910Z,24.03
2019-05-02T20:08:24.526Z,21.30
2019-05-02T20:10:58.428Z,22.87
2019-05-02T20:13:30.590Z,18.00
2019-05-02T20:16:14.037Z,26.07
2019-05-02T20:18:58.293Z,20.17
2019-05-02T20:21:34.122Z,21.50
2019-05-02T20:24:09.255Z,17.23
2019-05-02T20:26:46.537Z,13.10
2019-05-02T20:29:13.893Z,16.07
2019-05-02T20:31:47.357Z,15.23
2019-05-02T20:34:17.465Z,13.10
2019-05-02T20:36:47.744Z,11.90
2019-05-02T20:39:17.950Z,9.80
2019-05-02T20:41:52.938Z,14.40
2019-05-02T20:44:25.956Z,11.23
2019-05-02T20:46:58.733Z,8.57
2019-05-02T20:49:32.099Z,8.83
2019-05-02T20:52:02.519Z,7.80
2019-05-02T20:54:34.461Z,8.77
2019-05-02T20:57:12.002Z,8.27
2019-05-02T20:59:41.726Z,9.43
2019-05-02T21:02:14.239Z,7.60
2019-05-02T21:04:44.447Z,9.63
2019-05-02T21:07:33.270Z,11.03
2019-05-02T21:10:19.380Z,9.67
2019-05-02T21:12:49.673Z,12.47
2019-05-02T21:15:21.723Z,10.70
2019-05-02T21:17:51.867Z,9.27
2019-05-02T21:20:22.176Z,12.10
2019-05-02T21:22:54.938Z,8.55
2019-05-02T21:25:25.233Z,7.65
2019-05-02T21:28:00.045Z,8.40
2019-05-02T21:30:32.266Z,15.75
2019-05-02T21:33:05.940Z,7.22
2019-05-02T21:35:36.079Z,11.87
2019-05-02T21:38:06.166Z,10.45
2019-05-02T21:40:37.873Z,6.97
2019-05-02T21:43:08.007Z,11.00
2019-05-02T21:45:42.168Z,7.50
2019-05-02T21:48:12.457Z,7.50
2019-05-02T21:50:50.091Z,7.73
2019-05-02T21:53:54.929Z,7.37
2019-05-02T21:56:42.906Z,7.33
2019-05-02T21:59:12.464Z,11.87
2019-05-02T22:01:55.592Z,6.53
2019-05-02T22:04:25.546Z,8.75
2019-05-02T22:06:55.805Z,6.83
2019-05-02T22:09:26.319Z,11.88
2019-05-02T22:11:57.853Z,7.40
2019-05-02T22:14:29.131Z,12.37
2019-05-02T22:16:59.065Z,5.30
2019-05-02T22:19:29.017Z,6.93
2019-05-02T22:21:58.852Z,7.43
2019-05-02T22:24:28.792Z,10.37
2019-05-02T22:26:58.669Z,8.17
2019-05-02T22:29:28.554Z,11.57
2019-05-02T22:31:58.499Z,8.57
2019-05-02T22:34:28.601Z,9.80
2019-05-02T22:36:58.952Z,6.87
2019-05-02T22:39:37.192Z,5.80
2019-05-02T22:42:07.265Z,8.27
2019-05-02T22:44:37.197Z,6.43
2019-05-02T22:47:07.137Z,10.13
2019-05-02T22:49:37.175Z,9.60
2019-05-02T22:52:07.244Z,5.23
2019-05-02T22:54:37.459Z,7.10
2019-05-02T22:57:07.650Z,6.07
2019-05-02T22:59:38.556Z,12.33
2019-05-02T23:02:08.779Z,7.93
2019-05-02T23:04:39.490Z,12.20
2019-05-02T23:07:09.445Z,5.73
2019-05-02T23:09:39.560Z,6.50
2019-05-02T23:12:10.614Z,9.63
2019-05-02T23:14:41.842Z,6.67
2019-05-02T23:17:17.230Z,7.47
2019-05-02T23:19:47.278Z,6.50
2019-05-02T23:22:17.469Z,10.03
2019-05-02T23:25:02.889Z,7.57
2019-05-02T23:27:39.668Z,9.93
2019-05-02T23:30:14.109Z,10.50
2019-05-02T23:32:43.453Z,11.27
2019-05-02T23:35:13.866Z,9.00
2019-05-02T23:37:44.259Z,10.80
2019-05-02T23:40:15.614Z,8.13
2019-05-02T23:42:46.745Z,9.17
2019-05-02T23:45:16.939Z,11.10
2019-05-02T23:47:48.459Z,7.10
2019-05-02T23:50:18.770Z,8.83
2019-05-02T23:52:48.829Z,13.43
2019-05-02T23:55:19.205Z,18.63
2019-05-02T23:57:49.626Z,9.23
